Time;durP1;ratioP1;P1;durP2;ratioP2;P2;SDS_P1;SDS_P2;PMS_P1;PMS_P2;Temp;Humidity;BMP_temperature;BMP_pressure;BME280_temperature;BME280_humidity;BME280_pressure;Samples;Min_cycle;Max_cycle;Signal;HPM_P1;HPM_P2
2021/11/16 00:01:23;;;;;;;3.40;1.83;;;19.70;58.30;;;;;;4977210;28;20297;-80
2021/11/16 00:03:50;;;;;;;3.97;1.50;;;19.80;58.30;;;;;;4976739;28;20175;-79
2021/11/16 00:06:15;;;;;;;4.45;1.67;;;19.80;58.40;;;;;;4959617;28;20157;-80
2021/11/16 00:08:41;;;;;;;2.65;1.67;;;19.80;58.40;;;;;;4976781;28;20280;-79
2021/11/16 00:11:07;;;;;;;6.00;1.92;;;19.80;58.60;;;;;;4959497;28;20160;-80
2021/11/16 00:13:32;;;;;;;4.43;1.67;;;19.70;59.20;;;;;;4975732;28;20564;-80
2021/11/16 00:15:58;;;;;;;3.38;1.73;;;19.70;59.20;;;;;;4976531;28;20742;-79
2021/11/16 00:18:28;;;;;;;3.05;1.63;;;19.70;58.70;;;;;;4976941;28;20167;-79
2021/11/16 00:20:54;;;;;;;2.42;1.50;;;19.70;58.80;;;;;;4976553;28;20181;-81
2021/11/16 00:23:21;;;;;;;2.97;1.50;;;19.70;58.60;;;;;;4976721;28;20168;-80
2021/11/16 00:25:51;;;;;;;3.38;1.70;;;19.70;58.40;;;;;;4976771;28;20263;-80
2021/11/16 00:28:17;;;;;;;3.47;1.50;;;19.70;59.00;;;;;;4959460;28;20312;-80
2021/11/16 00:30:42;;;;;;;3.38;1.52;;;19.70;59.10;;;;;;4959210;28;20149;-80
2021/11/16 00:33:08;;;;;;;3.95;1.65;;;19.70;58.70;;;;;;4976256;28;20285;-80
2021/11/16 00:35:37;;;;;;;4.07;1.52;;;19.70;58.50;;;;;;4959038;28;20186;-79
2021/11/16 00:38:05;;;;;;;3.47;2.00;;;19.70;58.40;;;;;;4976587;28;20168;-80
2021/11/16 00:40:31;;;;;;;2.78;1.80;;;19.70;58.30;;;;;;4976274;28;20153;-80
2021/11/16 00:42:57;;;;;;;4.55;1.92;;;19.70;58.70;;;;;;4976159;28;20243;-80
2021/11/16 00:45:23;;;;;;;3.00;1.63;;;19.70;58.70;;;;;;4976434;28;20176;-80
2021/11/16 00:47:49;;;;;;;2.28;1.70;;;19.70;58.60;;;;;;4976150;28;20165;-79
2021/11/16 00:50:16;;;;;;;2.35;1.48;;;19.70;58.50;;;;;;4976218;28;20169;-79
2021/11/16 00:52:43;;;;;;;5.80;1.98;;;19.60;58.70;;;;;;4958795;28;20157;-79
2021/11/16 00:55:08;;;;;;;3.83;1.90;;;19.70;58.40;;;;;;4958850;28;20157;-79
2021/11/16 00:57:34;;;;;;;3.40;2.10;;;19.60;59.10;;;;;;4975853;28;20168;-80
2021/11/16 01:00:00;;;;;;;2.58;1.65;;;19.70;58.60;;;;;;4958662;28;20639;-80
2021/11/16 01:02:25;;;;;;;3.70;1.80;;;19.70;58.40;;;;;;4958557;28;20156;-80
2021/11/16 01:04:52;;;;;;;1.80;1.63;;;19.70;58.40;;;;;;4958530;28;20161;-79
2021/11/16 01:07:18;;;;;;;3.25;1.50;;;19.60;58.70;;;;;;4958506;28;20177;-80
2021/11/16 01:09:44;;;;;;;2.95;1.70;;;19.70;58.30;;;;;;4958384;28;20167;-79
2021/11/16 01:12:10;;;;;;;2.38;1.55;;;19.70;58.50;;;;;;4958772;28;20161;-80
2021/11/16 01:14:35;;;;;;;3.80;1.77;;;19.70;58.40;;;;;;4975330;28;20228;-79
2021/11/16 01:17:01;;;;;;;5.88;1.70;;;19.70;58.60;;;;;;4975470;28;20163;-80
2021/11/16 01:19:27;;;;;;;3.25;1.70;;;19.70;58.40;;;;;;4958639;28;20508;-80
2021/11/16 01:21:52;;;;;;;2.92;1.70;;;19.60;58.80;;;;;;4958244;28;20152;-80
2021/11/16 01:24:19;;;;;;;2.58;1.45;;;19.60;58.70;;;;;;4975330;28;20160;-79
2021/11/16 01:26:46;;;;;;;2.72;1.67;;;19.70;58.80;;;;;;4975318;28;20591;-80
2021/11/16 01:29:13;;;;;;;4.78;1.70;;;19.70;59.10;;;;;;4975725;28;20216;-79
2021/11/16 01:31:39;;;;;;;2.60;1.60;;;19.60;59.10;;;;;;4975456;28;20157;-80
2021/11/16 01:34:06;;;;;;;6.18;1.95;;;19.70;58.50;;;;;;4957761;28;20200;-80
2021/11/16 01:36:32;;;;;;;5.30;1.80;;;19.70;58.50;;;;;;4975152;28;20160;-80
2021/11/16 01:38:59;;;;;;;4.53;1.75;;;19.60;59.20;;;;;;4942049;28;20156;-79
2021/11/16 01:41:26;;;;;;;6.22;1.50;;;19.60;58.70;;;;;;4957963;28;20161;-79
2021/11/16 01:43:52;;;;;;;4.25;1.42;;;19.60;58.80;;;;;;4957707;28;20620;-80
2021/11/16 01:46:18;;;;;;;2.35;1.50;;;19.70;58.60;;;;;;4975205;28;20175;-80
2021/11/16 01:48:48;;;;;;;2.00;1.40;;;19.60;58.60;;;;;;4957676;28;20157;-80
2021/11/16 01:51:15;;;;;;;3.38;1.70;;;19.70;58.70;;;;;;4957673;28;20165;-80
2021/11/16 01:53:41;;;;;;;4.63;1.85;;;19.60;58.50;;;;;;4941711;28;20581;-80
2021/11/16 01:56:07;;;;;;;3.63;1.80;;;19.70;58.60;;;;;;4974805;28;20192;-80
2021/11/16 01:58:33;;;;;;;1.83;1.50;;;19.60;58.60;;;;;;4974799;28;20164;-80
2021/11/16 02:01:00;;;;;;;4.60;1.70;;;19.70;58.50;;;;;;4974718;28;20189;-80
2021/11/16 02:03:26;;;;;;;2.00;1.50;;;19.60;58.60;;;;;;4974717;28;20164;-79
2021/11/16 02:05:55;;;;;;;2.53;1.60;;;19.60;58.90;;;;;;4974904;28;20251;-79
2021/11/16 02:08:21;;;;;;;2.50;1.38;;;19.60;58.70;;;;;;4974882;28;20164;-79
2021/11/16 02:10:48;;;;;;;4.53;1.83;;;19.60;58.70;;;;;;4975249;28;20666;-80
2021/11/16 02:13:17;;;;;;;3.30;1.70;;;19.60;58.70;;;;;;4974749;28;20248;-79
2021/11/16 02:15:43;;;;;;;3.08;1.73;;;19.60;58.70;;;;;;4974438;28;20252;-80
2021/11/16 02:18:10;;;;;;;2.25;1.33;;;19.60;58.70;;;;;;4957452;28;20669;-80
2021/11/16 02:20:36;;;;;;;3.35;1.60;;;19.60;58.70;;;;;;4941480;28;20196;-79
2021/11/16 02:23:03;;;;;;;3.75;1.63;;;19.60;58.70;;;;;;4941497;28;20294;-80
2021/11/16 02:25:29;;;;;;;3.30;1.50;;;19.60;58.60;;;;;;4957408;28;20200;-79
2021/11/16 02:27:55;;;;;;;3.17;1.63;;;19.60;58.70;;;;;;4957203;28;20153;-79
2021/11/16 02:30:23;;;;;;;3.97;1.83;;;19.60;58.70;;;;;;4957187;28;20568;-79
2021/11/16 02:32:49;;;;;;;3.95;1.75;;;19.60;58.80;;;;;;4941591;28;20157;-80
2021/11/16 02:35:17;;;;;;;5.18;1.80;;;19.60;58.70;;;;;;4957113;28;20503;-80
2021/11/16 02:37:42;;;;;;;3.40;1.60;;;19.60;58.80;;;;;;4956776;28;20619;-79
2021/11/16 02:40:09;;;;;;;3.20;1.48;;;19.60;58.70;;;;;;4957018;28;20160;-79
2021/11/16 02:42:34;;;;;;;3.90;1.65;;;19.60;58.90;;;;;;4956967;28;20252;-80
2021/11/16 02:45:01;;;;;;;2.65;1.30;;;19.60;58.70;;;;;;4956940;28;20626;-79
2021/11/16 02:47:26;;;;;;;3.72;1.65;;;19.60;58.80;;;;;;4956963;28;20552;-80
2021/11/16 02:49:54;;;;;;;2.22;1.42;;;19.60;58.70;;;;;;4957086;28;20152;-80
2021/11/16 02:52:20;;;;;;;3.50;1.50;;;19.60;58.70;;;;;;4974041;28;20521;-79
2021/11/16 02:54:46;;;;;;;3.20;1.65;;;19.60;58.60;;;;;;4940871;28;20201;-79
2021/11/16 02:57:12;;;;;;;4.30;1.90;;;19.60;58.60;;;;;;4957240;28;20181;-79
2021/11/16 02:59:37;;;;;;;2.17;1.60;;;19.70;58.70;;;;;;4957039;28;20212;-79
2021/11/16 03:02:03;;;;;;;2.70;1.50;;;19.60;58.60;;;;;;4974064;28;20192;-79
2021/11/16 03:04:33;;;;;;;3.35;1.40;;;19.60;58.70;;;;;;4974705;28;20611;-79
2021/11/16 03:07:01;;;;;;;4.03;1.70;;;19.60;58.60;;;;;;4974253;28;20523;-79
2021/11/16 03:09:29;;;;;;;2.13;1.50;;;19.60;58.70;;;;;;4974129;28;20157;-80
2021/11/16 03:11:56;;;;;;;3.20;1.50;;;19.60;58.70;;;;;;4957221;28;20164;-79
2021/11/16 03:14:21;;;;;;;4.20;1.70;;;19.60;58.70;;;;;;4973759;28;20193;-79
2021/11/16 03:16:47;;;;;;;3.78;1.52;;;19.60;58.50;;;;;;4974101;28;20523;-79
2021/11/16 03:19:13;;;;;;;2.58;1.67;;;19.60;58.50;;;;;;4973887;28;20496;-79
2021/11/16 03:21:42;;;;;;;4.68;1.88;;;19.60;58.50;;;;;;4973885;28;20157;-80
2021/11/16 03:24:08;;;;;;;4.38;1.40;;;19.60;58.60;;;;;;4974171;28;20630;-79
2021/11/16 03:26:34;;;;;;;2.85;1.48;;;19.60;58.60;;;;;;4974159;28;20169;-80
2021/11/16 03:29:01;;;;;;;2.50;1.38;;;19.60;58.50;;;;;;4974043;28;20527;-82
2021/11/16 03:31:36;;;;;;;2.75;1.50;;;19.60;58.50;;;;;;4974143;28;20161;-79
2021/11/16 03:34:02;;;;;;;2.85;1.58;;;19.60;58.50;;;;;;4958084;28;20200;-80
2021/11/16 03:36:28;;;;;;;4.35;1.70;;;19.60;58.50;;;;;;4973792;28;20252;-80
2021/11/16 03:38:54;;;;;;;3.17;1.73;;;19.60;58.70;;;;;;4973761;28;20663;-79
2021/11/16 03:41:20;;;;;;;2.03;1.80;;;19.60;58.60;;;;;;4956815;28;20193;-80
2021/11/16 03:43:48;;;;;;;3.53;1.70;;;19.50;58.40;;;;;;4974010;28;20216;-79
2021/11/16 03:46:14;;;;;;;3.28;1.60;;;19.60;58.60;;;;;;4956709;28;20553;-79
2021/11/16 03:48:39;;;;;;;2.97;1.60;;;19.50;58.60;;;;;;4974116;28;20161;-79
2021/11/16 03:51:05;;;;;;;2.97;1.60;;;19.60;58.60;;;;;;4977208;28;20622;-79
2021/11/16 03:53:31;;;;;;;4.10;1.75;;;19.50;58.60;;;;;;4959833;28;20193;-79
2021/11/16 03:55:57;;;;;;;3.38;1.50;;;19.50;58.50;;;;;;4977167;28;20212;-79
2021/11/16 03:58:23;;;;;;;6.22;1.67;;;19.50;58.40;;;;;;4977034;28;20236;-79
2021/11/16 04:01:05;;;;;;;3.28;1.88;;;19.60;58.50;;;;;;4959802;28;20165;-79
2021/11/16 04:03:33;;;;;;;3.53;1.95;;;19.60;58.60;;;;;;4959630;28;20153;-79
2021/11/16 04:05:59;;;;;;;2.47;1.52;;;19.60;58.60;;;;;;4976896;28;20244;-79
2021/11/16 04:08:24;;;;;;;3.72;1.90;;;19.50;58.50;;;;;;4977080;28;20161;-79
2021/11/16 04:10:50;;;;;;;3.25;1.70;;;19.50;58.40;;;;;;4976768;28;20157;-79
2021/11/16 04:13:17;;;;;;;3.28;2.00;;;19.50;58.00;;;;;;4976608;28;20562;-80
2021/11/16 04:15:45;;;;;;;3.65;1.70;;;19.50;57.60;;;;;;4976521;28;20283;-79
2021/11/16 04:18:11;;;;;;;2.83;1.70;;;19.60;57.70;;;;;;4959868;28;20160;-80
2021/11/16 04:20:40;;;;;;;3.45;1.80;;;19.60;57.90;;;;;;4976852;28;20251;-79
2021/11/16 04:23:07;;;;;;;3.38;1.42;;;19.60;57.70;;;;;;4976935;28;20165;-79
2021/11/16 04:25:33;;;;;;;3.33;1.40;;;19.50;57.60;;;;;;4943466;28;20181;-80
2021/11/16 04:28:00;;;;;;;3.08;1.70;;;19.50;57.60;;;;;;4959375;28;20165;-79
2021/11/16 04:30:26;;;;;;;3.05;1.73;;;19.50;57.60;;;;;;4976704;28;20228;-80
2021/11/16 04:32:52;;;;;;;2.15;1.48;;;19.50;57.90;;;;;;4976492;28;20161;-79
2021/11/16 04:35:18;;;;;;;2.58;1.60;;;19.50;58.10;;;;;;4976314;28;20165;-80
2021/11/16 04:37:45;;;;;;;2.05;1.50;;;19.50;58.00;;;;;;4959356;28;20161;-80
2021/11/16 04:40:13;;;;;;;2.47;1.58;;;19.50;58.10;;;;;;4976206;28;20153;-79
2021/11/16 04:42:39;;;;;;;1.85;1.45;;;19.50;57.60;;;;;;4959211;28;20161;-79
2021/11/16 04:45:08;;;;;;;3.03;1.67;;;19.50;57.90;;;;;;4959089;28;20164;-80
2021/11/16 04:47:46;;;;;;;2.97;1.60;;;19.50;58.00;;;;;;4943655;28;20192;-79
2021/11/16 04:50:22;;;;;;;2.08;1.40;;;19.50;57.90;;;;;;4975929;28;20244;-79
2021/11/16 04:53:12;;;;;;;1.98;1.50;;;19.50;57.60;;;;;;4960374;28;20157;-79
2021/11/16 05:03:34;;;;;;;3.55;1.70;;;19.50;57.60;;;;;;4975762;28;20173;-79
2021/11/16 05:05:59;;;;;;;2.50;1.45;;;19.40;57.60;;;;;;4975780;28;20160;-80
2021/11/16 05:08:25;;;;;;;3.63;1.60;;;19.50;57.50;;;;;;4958479;28;20157;-79
2021/11/16 05:10:51;;;;;;;2.92;1.65;;;19.50;57.80;;;;;;4958505;28;20619;-79
2021/11/16 05:13:16;;;;;;;2.20;1.50;;;19.50;57.30;;;;;;4975571;28;20674;-80
2021/11/16 05:15:44;;;;;;;3.38;1.88;;;19.50;57.60;;;;;;5001563;28;20246;-80
2021/11/16 05:18:09;;;;;;;2.30;1.60;;;19.50;57.60;;;;;;5014792;28;20175;-80
2021/11/16 05:20:35;;;;;;;1.80;1.45;;;19.40;57.60;;;;;;5014832;28;20160;-80
2021/11/16 05:23:01;;;;;;;2.88;1.73;;;19.50;57.50;;;;;;5014518;28;20168;-80
2021/11/16 05:25:26;;;;;;;3.78;2.00;;;19.40;57.40;;;;;;5014551;28;20152;-79
2021/11/16 05:27:52;;;;;;;3.17;1.92;;;19.50;57.50;;;;;;5014406;28;20505;-79
2021/11/16 05:30:18;;;;;;;2.15;1.60;;;19.40;57.40;;;;;;5014454;28;20163;-79
2021/11/16 05:32:44;;;;;;;2.35;1.55;;;19.50;57.60;;;;;;5014323;28;20530;-79
2021/11/16 05:35:10;;;;;;;3.65;1.70;;;19.40;57.30;;;;;;5014640;28;20199;-79
2021/11/16 05:37:36;;;;;;;2.17;1.80;;;19.50;57.40;;;;;;4997041;28;20170;-80
2021/11/16 05:40:03;;;;;;;2.03;1.52;;;19.50;57.40;;;;;;4996783;28;20152;-79
2021/11/16 05:42:29;;;;;;;4.43;1.92;;;19.50;57.50;;;;;;4996791;28;20175;-79
2021/11/16 05:44:55;;;;;;;2.03;1.60;;;19.40;57.30;;;;;;4980369;28;20222;-79
2021/11/16 05:47:21;;;;;;;3.17;1.90;;;19.40;57.30;;;;;;4996580;28;20163;-80
2021/11/16 05:49:47;;;;;;;3.95;1.92;;;19.50;57.30;;;;;;4962649;28;20176;-80
2021/11/16 05:52:12;;;;;;;2.70;1.60;;;19.40;57.20;;;;;;4977017;28;20156;-79
2021/11/16 05:54:41;;;;;;;2.40;1.63;;;19.40;57.10;;;;;;4994204;28;20192;-79
2021/11/16 05:57:07;;;;;;;2.70;1.60;;;19.50;57.30;;;;;;4977586;28;20540;-79
2021/11/16 05:59:34;;;;;;;2.80;1.55;;;19.40;57.20;;;;;;4977044;28;20160;-79
2021/11/16 06:02:02;;;;;;;4.43;1.90;;;19.40;57.10;;;;;;4994238;28;20227;-81
2021/11/16 06:04:27;;;;;;;2.38;1.67;;;19.40;57.00;;;;;;4977047;28;20218;-80
2021/11/16 06:06:53;;;;;;;2.83;1.60;;;19.50;57.30;;;;;;4994155;28;20164;-79
2021/11/16 06:09:19;;;;;;;3.38;1.70;;;19.40;56.90;;;;;;4994208;28;20223;-78
2021/11/16 06:11:44;;;;;;;2.10;1.80;;;19.40;57.30;;;;;;4993547;28;20669;-79
2021/11/16 06:14:10;;;;;;;2.67;1.58;;;19.40;56.60;;;;;;4993712;28;20716;-79
2021/11/16 06:16:36;;;;;;;2.30;1.67;;;19.50;56.90;;;;;;4994255;28;20214;-79
2021/11/16 06:19:05;;;;;;;2.15;1.70;;;19.50;56.80;;;;;;4976535;28;20203;-80
2021/11/16 06:21:31;;;;;;;1.83;1.58;;;19.50;56.90;;;;;;4960669;28;20211;-79
2021/11/16 06:23:56;;;;;;;2.58;1.90;;;19.50;56.80;;;;;;4994224;28;20159;-79
2021/11/16 06:26:22;;;;;;;3.53;1.63;;;19.50;56.80;;;;;;4993857;28;20239;-79
2021/11/16 06:28:48;;;;;;;2.28;1.67;;;19.50;56.90;;;;;;4960435;28;20188;-80
2021/11/16 06:31:15;;;;;;;3.55;1.98;;;19.50;56.90;;;;;;4960535;28;20155;-79
2021/11/16 06:33:41;;;;;;;2.97;1.73;;;19.50;56.90;;;;;;4976379;28;20188;-80
2021/11/16 06:36:06;;;;;;;2.72;1.52;;;19.50;57.00;;;;;;4960722;28;20634;-79
2021/11/16 06:38:32;;;;;;;2.95;1.70;;;19.60;57.10;;;;;;4976474;28;20156;-79
2021/11/16 06:40:58;;;;;;;2.88;1.83;;;19.50;57.00;;;;;;4944410;28;20226;-79
2021/11/16 06:43:27;;;;;;;1.80;1.50;;;19.60;57.00;;;;;;4993563;28;20163;-79
2021/11/16 06:45:53;;;;;;;3.25;2.10;;;19.60;56.80;;;;;;4960633;28;20157;-79
2021/11/16 06:48:19;;;;;;;2.70;1.63;;;19.60;56.50;;;;;;4976258;28;20207;-80
2021/11/16 06:50:45;;;;;;;3.13;1.67;;;19.60;56.90;;;;;;4976096;28;20551;-79
2021/11/16 06:53:11;;;;;;;2.78;1.80;;;19.60;56.90;;;;;;4993500;28;20156;-79
2021/11/16 06:55:37;;;;;;;3.28;1.60;;;19.70;56.80;;;;;;4976374;28;20498;-79
2021/11/16 06:58:03;;;;;;;4.35;2.00;;;19.60;56.80;;;;;;4976289;28;20210;-79
2021/11/16 07:00:32;;;;;;;2.67;1.70;;;19.60;56.70;;;;;;4976300;28;20520;-79
2021/11/16 07:02:58;;;;;;;2.50;1.60;;;19.70;56.70;;;;;;4976034;28;20343;-78
2021/11/16 07:05:24;;;;;;;2.45;1.58;;;19.70;56.70;;;;;;4960339;28;20160;-79
2021/11/16 07:07:51;;;;;;;3.60;1.73;;;19.60;56.50;;;;;;4967330;28;20176;-79
2021/11/16 07:10:19;;;;;;;2.83;1.92;;;19.70;56.50;;;;;;4962047;28;20152;-79
2021/11/16 07:12:44;;;;;;;2.80;1.60;;;19.70;56.50;;;;;;4993735;28;20156;-79
2021/11/16 07:15:11;;;;;;;2.38;1.90;;;19.70;56.50;;;;;;4993210;28;20243;-79
2021/11/16 07:17:37;;;;;;;2.40;1.83;;;19.70;56.50;;;;;;4993333;28;20251;-79
2021/11/16 07:20:03;;;;;;;3.78;1.80;;;19.70;56.00;;;;;;4993657;28;20161;-79
2021/11/16 07:22:30;;;;;;;2.67;1.80;;;19.70;56.20;;;;;;4976709;28;20196;-79
2021/11/16 07:25:02;;;;;;;2.28;1.70;;;19.70;56.20;;;;;;4997238;28;20159;-80
2021/11/16 07:27:46;;;;;;;3.58;1.98;;;19.70;56.10;;;;;;4979973;28;20236;-79
2021/11/16 07:30:15;;;;;;;3.05;1.55;;;19.70;56.10;;;;;;4979765;28;20265;-80
2021/11/16 07:32:45;;;;;;;2.08;1.83;;;19.80;55.90;;;;;;4979829;28;20156;-79
2021/11/16 07:35:15;;;;;;;2.65;1.70;;;19.80;56.10;;;;;;4980186;28;20188;-79
2021/11/16 07:37:40;;;;;;;2.22;1.70;;;19.80;56.20;;;;;;4980687;28;20251;-79
2021/11/16 07:40:10;;;;;;;2.10;1.70;;;19.80;55.80;;;;;;4979870;28;20210;-80
2021/11/16 07:42:54;;;;;;;3.63;2.00;;;19.80;56.10;;;;;;5005287;28;20202;-79
2021/11/16 07:45:23;;;;;;;2.97;1.98;;;19.80;55.60;;;;;;5016586;28;20238;-80
2021/11/16 07:47:54;;;;;;;2.60;2.05;;;19.80;55.80;;;;;;5016525;28;20160;-79
2021/11/16 07:50:36;;;;;;;2.70;1.73;;;19.80;55.90;;;;;;5016497;28;20159;-80
2021/11/16 07:53:29;;;;;;;4.10;1.90;;;19.80;56.00;;;;;;5016280;28;20187;-80
2021/11/16 07:55:59;;;;;;;3.05;2.03;;;19.80;55.70;;;;;;5014713;28;20170;-79
2021/11/16 07:58:30;;;;;;;3.22;1.90;;;19.80;56.00;;;;;;4981152;28;20155;-80
2021/11/16 08:00:57;;;;;;;3.58;2.00;;;19.80;55.80;;;;;;4997707;28;20263;-79
2021/11/16 08:03:26;;;;;;;2.78;1.80;;;19.80;55.80;;;;;;4981177;28;20164;-79
2021/11/16 08:06:07;;;;;;;3.45;1.98;;;19.80;55.80;;;;;;5014395;28;20155;-79
2021/11/16 08:08:39;;;;;;;2.65;1.90;;;19.80;55.80;;;;;;5014578;28;20163;-80
2021/11/16 08:13:53;;;;;;;3.28;2.00;;;19.80;55.80;;;;;;5016110;28;20245;-79
2021/11/16 08:16:19;;;;;;;2.95;1.75;;;19.80;55.80;;;;;;5016356;28;20665;-79
2021/11/16 08:18:56;;;;;;;2.85;1.70;;;19.80;55.70;;;;;;4999281;28;20160;-79
2021/11/16 08:21:22;;;;;;;2.80;1.88;;;19.80;55.70;;;;;;5016025;28;20151;-79
2021/11/16 08:23:53;;;;;;;2.58;1.92;;;19.80;55.80;;;;;;5015976;28;20182;-81
2021/11/16 08:26:19;;;;;;;3.15;1.83;;;19.80;55.50;;;;;;5015947;28;20148;-79
2021/11/16 08:28:46;;;;;;;2.70;1.80;;;19.80;55.50;;;;;;4998600;28;20155;-79
2021/11/16 08:31:13;;;;;;;3.90;1.83;;;19.90;55.60;;;;;;4998171;28;20179;-79
2021/11/16 08:33:39;;;;;;;2.72;1.95;;;19.90;55.60;;;;;;5015457;28;20294;-79
2021/11/16 08:36:04;;;;;;;2.25;2.00;;;19.80;55.50;;;;;;4997428;28;20172;-79
2021/11/16 08:38:33;;;;;;;2.88;2.03;;;19.80;55.50;;;;;;5015369;28;20162;-79
2021/11/16 08:40:59;;;;;;;2.15;1.70;;;19.80;55.50;;;;;;5015381;28;20250;-80
2021/11/16 08:43:35;;;;;;;3.65;1.77;;;19.80;55.50;;;;;;4981511;28;20205;-79
2021/11/16 08:46:03;;;;;;;2.08;1.75;;;19.80;55.50;;;;;;4997590;28;20175;-80
2021/11/16 08:48:29;;;;;;;2.67;1.73;;;19.80;55.20;;;;;;4997966;28;20681;-79
2021/11/16 08:51:07;;;;;;;3.75;1.92;;;19.90;55.40;;;;;;4981627;28;20172;-80
2021/11/16 08:53:35;;;;;;;2.58;1.92;;;19.90;55.20;;;;;;4998056;28;20218;-80
2021/11/16 08:56:18;;;;;;;4.20;2.10;;;19.90;55.00;;;;;;5014817;28;20175;-83
2021/11/16 08:58:43;;;;;;;2.22;1.83;;;19.80;54.80;;;;;;5014976;28;20580;-79
2021/11/16 09:01:10;;;;;;;2.90;2.10;;;19.90;55.20;;;;;;5014684;28;20578;-79
2021/11/16 09:03:41;;;;;;;4.72;2.28;;;19.90;55.00;;;;;;5014918;28;20171;-79
2021/11/16 09:06:19;;;;;;;3.00;1.90;;;19.90;55.20;;;;;;5015157;28;20190;-79
2021/11/16 09:08:46;;;;;;;2.58;2.08;;;19.90;55.00;;;;;;4997562;28;20152;-79
2021/11/16 09:11:14;;;;;;;5.65;2.00;;;19.90;54.90;;;;;;4997305;28;20156;-79
2021/11/16 09:13:40;;;;;;;3.15;1.92;;;19.90;55.30;;;;;;5014950;28;20199;-79
2021/11/16 09:16:09;;;;;;;1.90;1.70;;;19.90;55.10;;;;;;5014402;28;20581;-79
2021/11/16 09:18:38;;;;;;;2.50;1.95;;;19.90;55.10;;;;;;5014940;28;20155;-79
2021/11/16 09:21:08;;;;;;;3.42;1.98;;;19.90;55.20;;;;;;5014669;28;20156;-79
2021/11/16 09:23:39;;;;;;;4.88;1.80;;;19.90;55.30;;;;;;4997815;28;20155;-81
2021/11/16 09:26:17;;;;;;;3.15;2.15;;;19.90;56.00;;;;;;4997671;28;20179;-80
2021/11/16 09:28:53;;;;;;;5.82;2.13;;;19.80;55.30;;;;;;4996864;28;20511;-79
2021/11/16 09:31:22;;;;;;;3.53;1.70;;;19.90;55.20;;;;;;5014764;28;20171;-79
2021/11/16 09:33:49;;;;;;;4.20;2.00;;;19.90;55.00;;;;;;4997049;28;20273;-80
2021/11/16 09:36:24;;;;;;;4.60;1.90;;;19.90;55.00;;;;;;4997223;28;20151;-79
2021/11/16 09:38:53;;;;;;;3.85;2.00;;;19.90;55.20;;;;;;4996913;28;20159;-79
2021/11/16 09:41:29;;;;;;;3.30;1.95;;;19.90;55.10;;;;;;4998008;28;20167;-80
2021/11/16 09:44:06;;;;;;;3.55;2.00;;;19.90;55.00;;;;;;5014311;28;20166;-79
2021/11/16 09:46:43;;;;;;;2.80;2.00;;;19.90;55.00;;;;;;4997097;28;20218;-79
2021/11/16 09:49:08;;;;;;;4.82;2.22;;;19.90;54.60;;;;;;4998217;28;20173;-80
2021/11/16 09:51:34;;;;;;;4.03;2.30;;;20.00;54.80;;;;;;4996392;28;20250;-80
2021/11/16 09:54:05;;;;;;;4.60;2.58;;;19.90;54.70;;;;;;5013812;28;20191;-79
2021/11/16 09:56:31;;;;;;;3.05;1.90;;;20.00;54.70;;;;;;5014133;28;20740;-80
2021/11/16 09:58:57;;;;;;;4.70;2.30;;;19.90;54.70;;;;;;4996748;28;20155;-79
2021/11/16 10:01:26;;;;;;;3.70;2.40;;;19.90;54.80;;;;;;4980532;28;20684;-80
2021/11/16 10:04:15;;;;;;;6.53;1.90;;;20.00;55.00;;;;;;4996642;28;20652;-78
2021/11/16 10:06:41;;;;;;;3.85;2.13;;;19.90;54.90;;;;;;5013558;28;20230;-79
2021/11/16 10:09:08;;;;;;;7.28;2.38;;;20.00;54.80;;;;;;5013775;28;20163;-79
2021/11/16 10:11:34;;;;;;;4.15;1.90;;;20.00;54.70;;;;;;5013822;28;20187;-79
2021/11/16 10:13:59;;;;;;;3.60;2.30;;;20.00;54.70;;;;;;5013771;28;20219;-79
2021/11/16 10:16:26;;;;;;;5.97;2.22;;;20.00;54.60;;;;;;5013548;28;20629;-79
2021/11/16 10:18:52;;;;;;;4.05;2.20;;;20.00;54.90;;;;;;4996617;28;20202;-80
2021/11/16 10:21:18;;;;;;;2.90;2.20;;;20.00;54.60;;;;;;5014691;28;20661;-79
2021/11/16 10:23:46;;;;;;;2.67;1.90;;;20.00;54.40;;;;;;4996764;28;20551;-79
2021/11/16 10:26:13;;;;;;;3.47;1.90;;;20.00;55.00;;;;;;4996611;28;20594;-79
2021/11/16 10:28:42;;;;;;;4.82;2.17;;;20.00;54.90;;;;;;5013606;28;20170;-79
2021/11/16 10:31:08;;;;;;;3.03;2.10;;;20.00;55.20;;;;;;5012939;28;20163;-79
2021/11/16 10:33:38;;;;;;;4.82;2.10;;;20.00;55.00;;;;;;4979452;28;20209;-78
2021/11/16 10:36:13;;;;;;;3.95;2.10;;;20.00;54.80;;;;;;5013808;28;20187;-80
2021/11/16 10:38:41;;;;;;;7.28;2.22;;;20.00;54.90;;;;;;5013231;28;20203;-78
2021/11/16 10:41:11;;;;;;;3.10;2.00;;;19.90;54.80;;;;;;4995456;28;20152;-77
2021/11/16 10:43:49;;;;;;;3.05;1.90;;;20.00;54.90;;;;;;4979555;28;20171;-77
2021/11/16 10:46:18;;;;;;;4.18;2.00;;;20.00;54.90;;;;;;4995847;28;20302;-77
2021/11/16 10:48:44;;;;;;;4.35;2.40;;;20.00;55.00;;;;;;5013737;28;20163;-77
2021/11/16 10:51:12;;;;;;;2.67;1.80;;;20.00;54.90;;;;;;4996246;28;20163;-78
2021/11/16 10:53:38;;;;;;;5.05;2.03;;;20.00;54.50;;;;;;4995812;28;20210;-78
2021/11/16 10:56:05;;;;;;;4.78;2.00;;;20.00;54.80;;;;;;4995112;28;20155;-79
2021/11/16 10:58:36;;;;;;;3.40;2.20;;;19.90;54.70;;;;;;5015188;28;20622;-77
2021/11/16 11:01:08;;;;;;;6.70;2.60;;;20.00;54.90;;;;;;5018038;28;20632;-77
2021/11/16 11:03:38;;;;;;;2.85;2.10;;;20.00;54.80;;;;;;5017480;28;20530;-77
2021/11/16 11:06:14;;;;;;;7.65;2.15;;;20.00;54.90;;;;;;5017332;28;20156;-78
2021/11/16 11:08:42;;;;;;;3.10;2.17;;;20.00;54.90;;;;;;5017025;28;20151;-77
2021/11/16 11:11:31;;;;;;;5.47;2.20;;;19.90;54.90;;;;;;5000116;28;20218;-77
2021/11/16 11:14:09;;;;;;;5.30;2.08;;;20.00;54.90;;;;;;5002213;28;20195;-78
2021/11/16 11:16:39;;;;;;;3.25;2.17;;;20.00;55.00;;;;;;5017216;28;20302;-77
2021/11/16 11:19:07;;;;;;;5.65;2.30;;;20.00;55.00;;;;;;5017835;28;20680;-79
2021/11/16 11:21:40;;;;;;;3.80;2.00;;;19.90;54.60;;;;;;4984003;28;20206;-78
2021/11/16 11:24:11;;;;;;;4.45;2.20;;;20.00;54.60;;;;;;4999640;28;20301;-78
2021/11/16 11:26:39;;;;;;;5.80;2.20;;;19.90;54.60;;;;;;5016407;28;20164;-77
2021/11/16 11:29:20;;;;;;;4.60;2.47;;;19.90;54.60;;;;;;4984000;28;20171;-77
2021/11/16 11:31:49;;;;;;;3.05;2.00;;;20.00;54.80;;;;;;5016404;28;20155;-77
2021/11/16 11:34:16;;;;;;;3.25;2.30;;;20.00;54.80;;;;;;4999233;28;20210;-77
2021/11/16 11:36:42;;;;;;;7.55;2.45;;;19.90;54.90;;;;;;4999150;28;20179;-77
2021/11/16 11:39:16;;;;;;;4.85;2.08;;;19.90;54.70;;;;;;4982913;28;20156;-77
2021/11/16 11:41:51;;;;;;;3.97;2.28;;;20.00;54.60;;;;;;5016278;28;20175;-79
2021/11/16 11:44:19;;;;;;;4.70;2.03;;;19.90;54.50;;;;;;5015649;28;20163;-79
2021/11/16 11:46:58;;;;;;;5.95;2.10;;;19.90;54.90;;;;;;5016045;28;20167;-80
2021/11/16 11:49:25;;;;;;;5.35;2.50;;;20.00;54.50;;;;;;5016112;28;20170;-80
2021/11/16 11:51:51;;;;;;;3.00;2.20;;;20.00;54.20;;;;;;5016168;28;20163;-80
2021/11/16 11:54:16;;;;;;;4.82;2.10;;;20.00;55.00;;;;;;5015784;28;20549;-79
2021/11/16 11:56:42;;;;;;;2.92;2.00;;;19.90;54.80;;;;;;4998335;28;20213;-80
2021/11/16 11:59:08;;;;;;;3.05;2.33;;;19.90;54.80;;;;;;4998910;28;20159;-80
2021/11/16 12:01:34;;;;;;;2.92;2.10;;;19.90;54.90;;;;;;4998641;28;20249;-80
2021/11/16 12:04:00;;;;;;;4.53;2.30;;;19.90;54.60;;;;;;5015829;28;20168;-80
2021/11/16 12:06:29;;;;;;;4.03;2.17;;;20.00;54.70;;;;;;5016167;28;20209;-80
2021/11/16 12:08:55;;;;;;;4.30;2.00;;;20.00;54.70;;;;;;5015031;28;20557;-80
2021/11/16 12:11:21;;;;;;;3.33;2.22;;;19.90;55.00;;;;;;4998077;28;20156;-80
2021/11/16 12:13:47;;;;;;;5.15;2.30;;;19.90;54.90;;;;;;4982524;28;20199;-79
2021/11/16 12:16:29;;;;;;;3.15;2.17;;;19.90;54.90;;;;;;5015603;28;20278;-81
2021/11/16 12:19:05;;;;;;;3.67;2.20;;;20.00;54.90;;;;;;5015891;28;20166;-79
2021/11/16 12:21:42;;;;;;;2.78;1.92;;;19.90;54.80;;;;;;4998565;28;20154;-80
2021/11/16 12:24:11;;;;;;;4.00;2.10;;;19.90;54.80;;;;;;5015796;28;20159;-80
2021/11/16 12:26:54;;;;;;;3.75;1.85;;;19.90;54.80;;;;;;4998426;28;20226;-80
2021/11/16 12:29:22;;;;;;;4.07;2.47;;;20.00;54.80;;;;;;4997909;28;20171;-80
2021/11/16 12:31:50;;;;;;;3.03;2.30;;;20.00;54.80;;;;;;5015552;28;20300;-80
2021/11/16 12:34:37;;;;;;;2.47;2.05;;;20.00;54.60;;;;;;5015467;28;20282;-80
2021/11/16 12:37:04;;;;;;;3.38;2.10;;;20.00;54.60;;;;;;5015639;28;20159;-80
2021/11/16 12:39:30;;;;;;;3.08;2.22;;;19.90;54.60;;;;;;5015469;28;20664;-80
2021/11/16 12:42:18;;;;;;;3.45;2.08;;;20.00;54.60;;;;;;5015356;28;20152;-80
2021/11/16 12:44:46;;;;;;;3.28;2.00;;;19.90;54.50;;;;;;5015250;28;20612;-80
2021/11/16 12:47:14;;;;;;;2.80;2.22;;;20.00;54.60;;;;;;4981954;28;20214;-80
2021/11/16 12:49:42;;;;;;;3.65;2.20;;;20.00;54.60;;;;;;4997667;28;20644;-80
2021/11/16 12:52:10;;;;;;;2.85;2.10;;;19.90;54.60;;;;;;5015071;28;20210;-80
2021/11/16 12:54:36;;;;;;;4.97;2.42;;;19.90;54.60;;;;;;4997773;28;20218;-81
2021/11/16 12:57:05;;;;;;;4.97;2.30;;;19.90;54.90;;;;;;4997711;28;20160;-80
2021/11/16 12:59:51;;;;;;;3.25;2.30;;;20.00;54.40;;;;;;5014953;28;20290;-80
2021/11/16 13:02:33;;;;;;;2.63;2.22;;;20.00;54.50;;;;;;4996005;28;20147;-80
2021/11/16 13:05:02;;;;;;;3.83;2.08;;;20.00;54.20;;;;;;5011430;28;20295;-80